Abingdon, VA (24210)

4:38 PM EST on January 18, 2017 (GMT -0500)
Country Club Estates | | Change Station

Elev 1990 ft 36.69 °N, 81.97 °W | Updated 5 seconds ago

Clear
Clear
55.7 °F
Feels Like 55.7 °F
N
6.9
Wind Variable Wind from NW
Gusts 6.9 mph

Today
High -- | Low -- °F
--% Chance of Precip.
Yesterday
High -- | Low -- °F
Precip. -- in
Pressure 30.08 in
Visibility 10.0 miles
Clouds Clear
Dew Point 43 °F
Humidity 62%
Rainfall 0.17 in
Snow Depth Not available.
7:38 AM 5:38 PM
Waning Gibbous, 60% visible
METAR KVJI 182115Z AUTO 36005KT 10SM CLR 14/04 A3008 RMK AO2 T01350043
Pressure 30.08 in
Visibility 10.0 miles
Clouds Clear
Dew Point 43 °F
Humidity 62%
Rainfall 0.17 in
Snow Depth Not available.
7:38 AM 5:38 PM
Waning Gibbous, 60% visible
METAR KVJI 182115Z AUTO 36005KT 10SM CLR 14/04 A3008 RMK AO2 T01350043

Get Your Daily Forecast Email!

Thanks for signing up!

Be on the lookout for a verification email in your inbox.

You'll start receiving the daily forecast at 8 AM.

×

10-Day Weather Forecast

Almanac

Astronomy

Jan. 18, 2017 Rise Set
Actual Time
Civil Twilight
Nautical Twilight
Astronomical Twilight
Moon
Length of Visible Light
Length of Day
Tomorrow will be .
, % of the Moon is Illuminated

Today's Extremes

State Highs State Lows

Community

WunderPhotos

Upload Photos

1,962,540 photos uploaded!

WunderBlog® & News

Nearby

Air Quality

  Air Quality AQ Index Pollutant
Not available.

Snow Depth

Station Depth Elevation

Earthquake Activity

City Distance Mag. Time & Date
Minimum magnitude displayed is 2.5.

Coastal Water Temperatures

Place Temperature

Stations

Nearby Weather Stations

Station Location Temp. Windchill Dew Point Humidity Wind Precip. Elev Updated Type
                   

Watches & Warnings

There are currently no watches in effect.